createdAt,value
2022-10-22T00:00:26.332Z,9.90
2022-10-22T00:01:28.898Z,9.90
2022-10-22T00:02:32.249Z,9.90
2022-10-22T00:03:35.015Z,9.90
2022-10-22T00:04:38.505Z,9.90
2022-10-22T00:05:40.941Z,9.90
2022-10-22T00:06:45.448Z,9.90
2022-10-22T00:07:47.792Z,9.90
2022-10-22T00:08:59.555Z,9.90
2022-10-22T00:10:02.229Z,10.00
2022-10-22T00:11:13.427Z,10.00
2022-10-22T00:12:21.726Z,10.00
2022-10-22T00:13:28.448Z,10.00
2022-10-22T00:14:30.718Z,10.00
2022-10-22T00:15:34.034Z,10.10
2022-10-22T00:16:36.920Z,10.10
2022-10-22T00:17:41.238Z,10.10
2022-10-22T00:18:44.396Z,10.10
2022-10-22T00:19:50.889Z,10.10
2022-10-22T00:20:53.344Z,10.10
2022-10-22T00:21:56.737Z,10.10
2022-10-22T00:22:58.998Z,10.10
2022-10-22T00:24:07.131Z,10.00
2022-10-22T00:25:10.047Z,10.10
2022-10-22T00:26:13.963Z,9.70
2022-10-22T00:27:17.818Z,10.00
2022-10-22T00:28:23.650Z,10.00
2022-10-22T00:29:35.694Z,10.00
2022-10-22T00:30:39.636Z,10.10
2022-10-22T00:31:42.023Z,10.10
2022-10-22T00:32:45.422Z,10.10
2022-10-22T00:33:48.287Z,9.00
2022-10-22T00:34:51.569Z,10.10
2022-10-22T00:35:56.184Z,10.10
2022-10-22T00:37:00.312Z,10.10
2022-10-22T00:38:03.038Z,10.10
2022-10-22T00:39:06.384Z,10.10
2022-10-22T00:40:10.425Z,10.10
2022-10-22T00:41:14.880Z,10.10
2022-10-22T00:42:22.115Z,10.10
2022-10-22T00:43:25.802Z,10.10
2022-10-22T00:45:05.917Z,10.10
2022-10-22T00:46:09.505Z,10.00
2022-10-22T00:47:12.146Z,9.90
2022-10-22T00:48:21.132Z,9.90
2022-10-22T00:49:23.805Z,9.90
2022-10-22T00:50:33.054Z,9.90
2022-10-22T00:51:36.749Z,9.90
2022-10-22T00:52:40.932Z,10.00
2022-10-22T00:53:47.936Z,11.10
2022-10-22T00:54:53.162Z,11.80
2022-10-22T00:55:57.470Z,10.00
2022-10-22T00:57:00.424Z,10.00
2022-10-22T00:58:06.015Z,10.10
2022-10-22T00:59:12.453Z,10.00
2022-10-22T01:00:18.713Z,10.00
2022-10-22T01:01:25.296Z,10.00
2022-10-22T01:02:31.038Z,10.00
2022-10-22T01:03:33.623Z,10.10
2022-10-22T01:04:36.953Z,10.10
2022-10-22T01:05:43.905Z,10.10
2022-10-22T01:06:48.131Z,10.10
2022-10-22T01:07:54.237Z,10.10
2022-10-22T01:09:10.216Z,10.10
2022-10-22T01:10:25.914Z,10.10
2022-10-22T01:11:40.791Z,10.20
2022-10-22T01:12:53.301Z,10.10
2022-10-22T01:14:04.859Z,10.10
2022-10-22T01:15:17.326Z,10.00
2022-10-22T01:16:31.405Z,9.10
2022-10-22T01:17:44.581Z,10.00
2022-10-22T01:18:59.754Z,10.00
2022-10-22T01:20:17.186Z,10.00
2022-10-22T01:21:31.143Z,10.00
2022-10-22T01:22:41.390Z,10.00
2022-10-22T01:24:16.794Z,10.00
2022-10-22T01:25:33.112Z,10.00
2022-10-22T01:26:49.349Z,10.00
2022-10-22T01:28:09.146Z,10.00
2022-10-22T01:29:18.800Z,10.00
2022-10-22T01:30:27.472Z,10.00
2022-10-22T01:31:35.198Z,9.90
2022-10-22T01:32:44.316Z,9.90
2022-10-22T01:33:50.110Z,9.90
2022-10-22T01:34:59.951Z,9.90
2022-10-22T01:36:05.083Z,9.80
2022-10-22T01:37:11.641Z,9.80
2022-10-22T01:38:19.228Z,10.00
2022-10-22T01:39:25.138Z,9.90
2022-10-22T01:40:30.030Z,9.80
2022-10-22T01:41:33.627Z,9.90
2022-10-22T01:42:38.133Z,9.90
2022-10-22T01:43:41.446Z,9.90
2022-10-22T01:44:45.114Z,9.90
2022-10-22T01:45:59.311Z,10.00
2022-10-22T01:47:20.046Z,9.90
2022-10-22T01:48:39.521Z,9.90
2022-10-22T01:50:22.714Z,10.00
2022-10-22T01:51:43.547Z,10.00
2022-10-22T01:53:05.348Z,9.90
2022-10-22T01:54:29.843Z,9.90
2022-10-22T01:55:47.489Z,9.90
2022-10-22T01:57:01.042Z,9.90
2022-10-22T01:58:23.405Z,9.90
2022-10-22T01:59:41.636Z,9.90
2022-10-22T02:00:53.657Z,9.90
2022-10-22T02:02:05.916Z,9.80
2022-10-22T02:03:19.898Z,9.80
2022-10-22T02:04:32.705Z,9.80
2022-10-22T02:05:44.347Z,9.70
2022-10-22T02:06:51.082Z,9.80
2022-10-22T02:08:02.318Z,9.80
2022-10-22T02:09:07.063Z,9.80
2022-10-22T02:10:15.978Z,9.90
2022-10-22T02:11:18.628Z,9.90
2022-10-22T02:12:30.032Z,9.90
2022-10-22T02:13:39.731Z,10.00
2022-10-22T02:14:49.371Z,9.90
2022-10-22T02:15:55.007Z,10.00
2022-10-22T02:17:01.228Z,10.00
2022-10-22T02:18:06.449Z,10.10
2022-10-22T02:19:20.919Z,10.10
2022-10-22T02:20:28.222Z,10.00
2022-10-22T02:21:32.937Z,10.10
2022-10-22T02:22:37.605Z,10.10
2022-10-22T02:23:41.425Z,10.00
2022-10-22T02:24:46.576Z,10.00
2022-10-22T02:26:03.397Z,10.00
2022-10-22T02:27:14.329Z,10.00
2022-10-22T02:28:24.959Z,10.00
2022-10-22T02:29:36.988Z,10.10
2022-10-22T02:30:45.282Z,10.10
2022-10-22T02:31:53.815Z,10.10
2022-10-22T02:33:02.873Z,10.10
2022-10-22T02:34:11.237Z,10.10
2022-10-22T02:35:19.796Z,10.10
2022-10-22T02:36:28.045Z,10.10
2022-10-22T02:37:32.004Z,10.10
2022-10-22T02:38:41.245Z,10.10
2022-10-22T02:39:46.033Z,10.10
2022-10-22T02:40:48.632Z,10.10
2022-10-22T02:41:52.179Z,10.20
2022-10-22T02:42:54.593Z,10.10
2022-10-22T02:43:58.279Z,10.10
2022-10-22T02:45:01.000Z,10.20
2022-10-22T02:46:04.256Z,10.20
2022-10-22T02:47:08.372Z,10.20
2022-10-22T02:48:13.811Z,10.20
2022-10-22T02:49:16.683Z,10.20
2022-10-22T02:50:20.120Z,10.20
2022-10-22T02:51:22.687Z,10.20
2022-10-22T02:52:31.574Z,10.20
2022-10-22T02:53:34.139Z,10.30
2022-10-22T02:54:37.649Z,10.20
2022-10-22T02:55:40.240Z,10.20
2022-10-22T02:56:46.471Z,10.20
2022-10-22T02:57:49.064Z,10.10
2022-10-22T02:58:52.786Z,10.00
2022-10-22T02:59:55.072Z,10.10
2022-10-22T03:00:59.182Z,10.10
2022-10-22T03:02:01.564Z,9.20
2022-10-22T03:03:06.222Z,8.70
2022-10-22T03:04:09.954Z,10.20
2022-10-22T03:05:13.253Z,10.20
2022-10-22T03:06:22.569Z,10.30
2022-10-22T03:07:25.878Z,10.20
2022-10-22T03:08:31.219Z,10.20
2022-10-22T03:09:35.458Z,10.20
2022-10-22T03:10:38.254Z,10.20
2022-10-22T03:11:47.445Z,9.00
2022-10-22T03:12:55.070Z,8.90
2022-10-22T03:13:58.526Z,10.20
2022-10-22T03:15:03.646Z,10.10
2022-10-22T03:16:09.988Z,10.10
2022-10-22T03:17:14.400Z,10.10
2022-10-22T03:18:19.268Z,10.10
2022-10-22T03:19:21.863Z,10.10
2022-10-22T03:20:28.596Z,10.10
2022-10-22T03:21:37.635Z,11.30
2022-10-22T03:22:44.815Z,10.20
2022-10-22T03:23:48.497Z,10.20
2022-10-22T03:24:58.819Z,10.10
2022-10-22T03:26:07.295Z,10.20
2022-10-22T03:27:16.458Z,10.10
2022-10-22T03:28:23.897Z,10.20
2022-10-22T03:29:28.926Z,10.20
2022-10-22T03:31:24.075Z,10.20
2022-10-22T03:32:33.958Z,10.20
2022-10-22T03:33:38.959Z,10.10
2022-10-22T03:34:41.323Z,10.20
2022-10-22T03:35:47.230Z,10.20
2022-10-22T03:36:52.714Z,10.20
2022-10-22T03:37:55.630Z,8.90
2022-10-22T03:39:00.135Z,9.00
2022-10-22T03:40:04.503Z,10.30
2022-10-22T03:41:10.212Z,10.30
2022-10-22T03:42:13.799Z,10.30
2022-10-22T03:43:18.123Z,10.40
2022-10-22T03:44:24.103Z,10.40
2022-10-22T03:45:27.466Z,10.40
2022-10-22T03:46:29.783Z,10.30
2022-10-22T03:47:33.020Z,11.80
2022-10-22T03:48:35.398Z,10.30
2022-10-22T03:49:40.153Z,10.30
2022-10-22T03:50:42.405Z,10.30
2022-10-22T03:51:45.697Z,10.30
2022-10-22T03:52:48.154Z,12.00
2022-10-22T03:53:51.607Z,10.40
2022-10-22T03:54:54.249Z,10.40
2022-10-22T03:55:57.474Z,10.30
2022-10-22T03:57:01.951Z,10.40
2022-10-22T03:58:05.646Z,10.40
2022-10-22T03:59:08.191Z,10.40
2022-10-22T04:00:12.363Z,10.40
2022-10-22T04:01:15.200Z,10.40
2022-10-22T04:02:18.575Z,10.40
2022-10-22T04:03:20.836Z,9.70
2022-10-22T04:04:24.611Z,10.50
2022-10-22T04:05:28.456Z,10.40
2022-10-22T04:06:32.088Z,10.50
2022-10-22T04:07:34.548Z,10.50
2022-10-22T04:08:40.056Z,10.50
2022-10-22T04:09:47.184Z,10.50
2022-10-22T04:10:53.319Z,10.50
2022-10-22T04:11:55.732Z,10.50
2022-10-22T04:12:59.141Z,10.60
2022-10-22T04:14:01.570Z,10.60
2022-10-22T04:15:06.078Z,10.60
2022-10-22T04:16:10.168Z,10.60
2022-10-22T04:17:13.512Z,10.60
2022-10-22T04:18:15.817Z,10.60
2022-10-22T04:19:19.507Z,10.60
2022-10-22T04:20:22.556Z,10.60
2022-10-22T04:21:27.717Z,10.70
2022-10-22T04:22:30.240Z,10.70
2022-10-22T04:23:34.776Z,10.70
2022-10-22T04:24:37.252Z,10.60
2022-10-22T04:25:43.104Z,10.60
2022-10-22T04:26:45.554Z,10.70
2022-10-22T04:27:50.588Z,10.70
2022-10-22T04:28:53.837Z,12.10
2022-10-22T04:29:57.144Z,10.80
2022-10-22T04:30:59.630Z,10.70
2022-10-22T04:32:03.023Z,10.80
2022-10-22T04:33:05.418Z,10.70
2022-10-22T04:34:08.670Z,10.80
2022-10-22T04:35:10.901Z,10.80
2022-10-22T04:36:16.515Z,10.80
2022-10-22T04:37:21.061Z,10.80
2022-10-22T04:38:26.092Z,10.70
2022-10-22T04:39:28.958Z,10.70
2022-10-22T04:40:32.287Z,10.70
2022-10-22T04:41:40.039Z,10.70
2022-10-22T04:42:43.761Z,10.80
2022-10-22T04:43:46.728Z,10.80
2022-10-22T04:44:49.971Z,10.80
2022-10-22T04:45:52.305Z,10.80
2022-10-22T04:46:55.905Z,10.80
2022-10-22T04:48:02.436Z,10.80
2022-10-22T04:49:10.748Z,10.80
2022-10-22T04:50:15.848Z,10.80
2022-10-22T04:51:22.223Z,10.80
2022-10-22T04:52:25.868Z,10.80
2022-10-22T04:53:29.702Z,10.80
2022-10-22T04:54:34.900Z,10.80
2022-10-22T04:55:38.440Z,10.80
2022-10-22T04:56:40.854Z,10.80
2022-10-22T04:57:44.236Z,10.80
2022-10-22T04:58:47.248Z,10.80
2022-10-22T04:59:50.499Z,10.80
2022-10-22T05:00:53.063Z,10.80
2022-10-22T05:01:56.636Z,10.80
2022-10-22T05:02:58.911Z,10.80
2022-10-22T05:04:04.298Z,10.80
2022-10-22T05:05:06.981Z,10.80
2022-10-22T05:07:22.104Z,10.90
2022-10-22T05:08:26.024Z,10.90
2022-10-22T05:09:29.371Z,10.90
2022-10-22T05:10:31.673Z,10.90
2022-10-22T05:11:41.756Z,10.90
2022-10-22T05:12:45.479Z,10.90
2022-10-22T05:13:48.579Z,10.90
2022-10-22T05:14:52.016Z,10.90
2022-10-22T05:15:54.512Z,10.90
2022-10-22T05:16:58.332Z,10.90
2022-10-22T05:18:00.760Z,12.40
2022-10-22T05:19:05.180Z,10.90
2022-10-22T05:20:09.972Z,11.00
2022-10-22T05:21:15.664Z,10.90
2022-10-22T05:22:21.876Z,10.90
2022-10-22T05:23:25.715Z,10.90
2022-10-22T05:24:31.259Z,11.00
2022-10-22T05:25:37.912Z,10.90
2022-10-22T05:26:41.162Z,11.00
2022-10-22T05:27:49.664Z,11.00
2022-10-22T05:28:53.920Z,12.60
2022-10-22T05:29:56.253Z,10.90
2022-10-22T05:31:03.316Z,10.90
2022-10-22T05:32:06.008Z,11.00
2022-10-22T05:33:09.680Z,11.00
2022-10-22T05:34:12.991Z,11.00
2022-10-22T05:35:15.489Z,11.00
2022-10-22T05:36:20.862Z,11.00
2022-10-22T05:37:23.297Z,11.00
2022-10-22T05:38:28.351Z,11.00
2022-10-22T05:39:30.714Z,11.00
2022-10-22T05:40:33.920Z,11.00
2022-10-22T05:41:36.466Z,11.00
2022-10-22T05:42:39.993Z,11.00
2022-10-22T05:43:47.781Z,11.00
2022-10-22T05:44:51.313Z,10.90
2022-10-22T05:45:53.702Z,10.90
2022-10-22T05:46:57.303Z,10.90
2022-10-22T05:47:59.546Z,10.90
2022-10-22T05:49:08.868Z,10.90
2022-10-22T05:50:11.101Z,11.00
2022-10-22T05:51:15.625Z,11.10
2022-10-22T05:52:17.950Z,11.00
2022-10-22T05:53:21.450Z,11.00
2022-10-22T05:54:29.382Z,11.00
2022-10-22T05:55:39.146Z,11.00
2022-10-22T05:56:41.393Z,11.00
2022-10-22T05:57:47.018Z,11.00
2022-10-22T05:58:50.007Z,11.10
2022-10-22T05:59:56.427Z,11.00
2022-10-22T06:01:02.921Z,12.50
2022-10-22T06:02:06.445Z,11.10
2022-10-22T06:03:08.797Z,11.20
2022-10-22T06:04:14.161Z,11.20
2022-10-22T06:05:18.620Z,11.20
2022-10-22T06:06:27.326Z,11.20
2022-10-22T06:07:30.356Z,11.20
2022-10-22T06:08:34.628Z,11.70
2022-10-22T06:09:39.952Z,11.20
2022-10-22T06:10:44.845Z,11.20
2022-10-22T06:11:49.840Z,11.20
2022-10-22T06:12:58.267Z,11.20
2022-10-22T06:14:01.767Z,11.10
2022-10-22T06:15:04.597Z,11.10
2022-10-22T06:16:08.407Z,11.10
2022-10-22T06:17:16.555Z,12.20
2022-10-22T06:18:24.311Z,11.10
2022-10-22T06:19:31.426Z,9.90
2022-10-22T06:20:35.576Z,11.10
2022-10-22T06:21:40.459Z,11.10
2022-10-22T06:22:44.045Z,11.10
2022-10-22T06:23:49.056Z,11.00
2022-10-22T06:24:56.395Z,11.00
2022-10-22T06:25:59.665Z,11.00
2022-10-22T06:27:03.086Z,11.10
2022-10-22T06:28:05.536Z,11.10
2022-10-22T06:29:09.662Z,11.10
2022-10-22T06:30:15.523Z,11.10
2022-10-22T06:31:18.735Z,11.10
2022-10-22T06:32:23.648Z,11.10
2022-10-22T06:33:27.218Z,11.20
2022-10-22T06:34:30.713Z,11.20
2022-10-22T06:35:33.735Z,10.10
2022-10-22T06:36:38.352Z,11.20
2022-10-22T06:37:43.890Z,11.20
2022-10-22T06:38:47.954Z,11.20
2022-10-22T06:39:50.287Z,11.30
2022-10-22T06:40:55.092Z,11.30
2022-10-22T06:41:58.452Z,11.20
2022-10-22T06:43:08.630Z,11.20
2022-10-22T06:44:15.630Z,11.30
2022-10-22T06:45:18.393Z,11.30
2022-10-22T06:46:25.441Z,11.30
2022-10-22T06:47:27.772Z,11.30
2022-10-22T06:48:31.082Z,11.30
2022-10-22T06:49:33.497Z,11.40
2022-10-22T06:50:36.845Z,11.00
2022-10-22T06:51:39.561Z,11.50
2022-10-22T06:52:43.313Z,11.40
2022-10-22T06:53:47.624Z,11.40
2022-10-22T06:54:51.960Z,11.40
2022-10-22T06:55:56.813Z,11.50
2022-10-22T06:57:04.814Z,11.40
2022-10-22T06:58:07.262Z,11.40
2022-10-22T06:59:10.790Z,11.50
2022-10-22T07:00:18.781Z,11.50
2022-10-22T07:01:25.224Z,11.60
2022-10-22T07:02:28.752Z,11.60
2022-10-22T07:03:31.397Z,11.60
2022-10-22T07:04:34.776Z,11.50
2022-10-22T07:05:39.993Z,11.60
2022-10-22T07:06:43.600Z,11.60
2022-10-22T07:07:45.934Z,10.70
2022-10-22T07:08:55.676Z,11.60
2022-10-22T07:09:58.919Z,11.70
2022-10-22T07:11:10.276Z,11.70
2022-10-22T07:12:12.634Z,11.70
2022-10-22T07:13:16.080Z,11.70
2022-10-22T07:14:18.546Z,11.60
2022-10-22T07:15:21.929Z,11.60
2022-10-22T07:16:29.503Z,11.60
2022-10-22T07:17:35.608Z,11.60
2022-10-22T07:18:40.024Z,11.60
2022-10-22T07:19:44.570Z,11.60
2022-10-22T07:20:48.288Z,11.70
2022-10-22T07:21:51.560Z,12.70
2022-10-22T07:22:54.034Z,11.70
2022-10-22T07:23:57.719Z,11.70
2022-10-22T07:25:03.907Z,11.70
2022-10-22T07:26:15.699Z,11.70
2022-10-22T07:27:18.459Z,11.70
2022-10-22T07:28:22.465Z,11.70
2022-10-22T07:29:24.890Z,11.80
2022-10-22T07:30:28.572Z,11.70
2022-10-22T07:31:31.717Z,11.80
2022-10-22T07:32:35.251Z,11.60
2022-10-22T07:33:37.934Z,11.60
2022-10-22T07:34:43.146Z,11.70
2022-10-22T07:35:46.483Z,11.60
2022-10-22T07:36:50.111Z,11.70
2022-10-22T07:37:52.535Z,11.60
2022-10-22T07:38:57.761Z,11.60
2022-10-22T07:40:03.014Z,11.60
2022-10-22T07:41:07.711Z,11.60
2022-10-22T07:42:12.411Z,11.60
2022-10-22T07:43:15.003Z,11.60
2022-10-22T07:44:18.481Z,11.70
2022-10-22T07:45:21.052Z,11.70
2022-10-22T07:46:25.621Z,11.70
2022-10-22T07:47:28.999Z,11.70
2022-10-22T07:48:31.901Z,11.70
2022-10-22T07:49:37.853Z,11.80
2022-10-22T07:50:40.420Z,11.80
2022-10-22T07:51:44.122Z,11.80
2022-10-22T07:52:46.973Z,11.80
2022-10-22T07:53:50.906Z,11.70
2022-10-22T07:54:53.486Z,11.70
2022-10-22T07:55:56.901Z,11.70
2022-10-22T07:57:00.598Z,11.70
2022-10-22T07:58:04.454Z,11.80
2022-10-22T07:59:08.046Z,11.70
2022-10-22T08:00:11.712Z,11.70
2022-10-22T08:01:20.834Z,11.70
2022-10-22T08:02:23.499Z,11.80
2022-10-22T08:03:27.105Z,11.80
2022-10-22T08:04:29.791Z,11.90
2022-10-22T08:05:33.687Z,12.00
2022-10-22T08:06:36.357Z,12.00
2022-10-22T08:07:42.002Z,12.00
2022-10-22T08:08:45.874Z,12.10
2022-10-22T08:09:49.600Z,12.10
2022-10-22T08:10:53.234Z,12.20
2022-10-22T08:11:56.758Z,12.20
2022-10-22T08:12:59.627Z,12.30
2022-10-22T08:14:04.308Z,12.20
2022-10-22T08:15:08.962Z,12.30
2022-10-22T08:16:12.677Z,12.30
2022-10-22T08:17:16.267Z,12.30
2022-10-22T08:18:19.880Z,12.30
2022-10-22T08:19:24.310Z,12.40
2022-10-22T08:20:26.962Z,12.50
2022-10-22T08:21:31.293Z,12.50
2022-10-22T08:22:33.638Z,12.60
2022-10-22T08:23:37.605Z,12.70
2022-10-22T08:24:40.587Z,12.70
2022-10-22T08:25:44.179Z,12.80
2022-10-22T08:26:46.568Z,12.80
2022-10-22T08:27:55.891Z,12.90
2022-10-22T08:28:59.499Z,12.90
2022-10-22T08:30:04.810Z,13.00
2022-10-22T08:31:09.271Z,13.00
2022-10-22T08:32:11.879Z,13.00
2022-10-22T08:33:15.334Z,13.00
2022-10-22T08:34:18.277Z,13.00
2022-10-22T08:35:21.945Z,13.00
2022-10-22T08:36:27.211Z,13.00
2022-10-22T08:37:34.038Z,13.00
2022-10-22T08:38:36.662Z,13.00
2022-10-22T08:39:41.234Z,13.00
2022-10-22T08:42:03.070Z,13.00
2022-10-22T08:43:41.918Z,12.90
2022-10-22T08:45:04.135Z,13.00
2022-10-22T08:46:43.177Z,13.00
2022-10-22T08:48:05.028Z,13.00
2022-10-22T08:49:20.090Z,13.10
2022-10-22T08:50:31.096Z,13.10
2022-10-22T08:51:40.559Z,13.10
2022-10-22T08:52:49.300Z,13.20
2022-10-22T08:54:14.081Z,13.10
2022-10-22T08:55:18.525Z,13.20
2022-10-22T08:56:24.955Z,13.20
2022-10-22T08:57:51.189Z,13.20
2022-10-22T08:59:04.522Z,13.10
2022-10-22T09:00:13.653Z,13.30
2022-10-22T09:01:23.404Z,13.30
2022-10-22T09:02:39.167Z,13.40
2022-10-22T09:03:50.491Z,13.40
2022-10-22T09:05:03.454Z,13.40
2022-10-22T09:06:14.719Z,13.40
2022-10-22T09:07:17.266Z,13.50
2022-10-22T09:08:24.962Z,13.50
2022-10-22T09:09:35.321Z,13.50
2022-10-22T09:10:47.805Z,13.50
2022-10-22T09:11:55.533Z,13.50
2022-10-22T09:12:58.569Z,13.50
2022-10-22T09:14:04.602Z,13.60
2022-10-22T09:15:09.806Z,13.70
2022-10-22T09:16:23.917Z,13.60
2022-10-22T09:17:36.773Z,13.70
2022-10-22T09:18:51.973Z,13.70
2022-10-22T09:20:12.976Z,13.70
2022-10-22T09:21:29.477Z,13.60
2022-10-22T09:22:43.659Z,13.70
2022-10-22T09:24:00.491Z,13.70
2022-10-22T09:25:24.299Z,13.70
2022-10-22T09:26:32.777Z,13.70
2022-10-22T09:27:36.278Z,13.60
2022-10-22T09:28:38.772Z,13.60
2022-10-22T09:29:42.553Z,13.70
2022-10-22T09:30:45.935Z,13.70
2022-10-22T09:31:54.941Z,13.80
2022-10-22T09:33:02.905Z,13.80
2022-10-22T09:34:07.796Z,13.80
2022-10-22T09:35:11.762Z,13.80
2022-10-22T09:36:18.147Z,13.90
2022-10-22T09:37:26.383Z,13.80
2022-10-22T09:38:31.805Z,13.90
2022-10-22T09:39:40.105Z,13.90
2022-10-22T09:40:46.077Z,13.90
2022-10-22T09:41:48.408Z,13.90
2022-10-22T09:43:00.965Z,13.90
2022-10-22T09:44:08.633Z,14.00
2022-10-22T09:45:19.123Z,14.10
2022-10-22T09:46:24.816Z,14.10
2022-10-22T09:47:43.346Z,14.10
2022-10-22T09:49:04.416Z,14.10
2022-10-22T09:50:28.336Z,14.00
2022-10-22T09:51:53.314Z,14.10
2022-10-22T09:53:00.475Z,14.00
2022-10-22T09:54:18.063Z,14.30
2022-10-22T09:55:20.582Z,14.20
2022-10-22T09:56:28.599Z,14.10
2022-10-22T09:57:32.769Z,14.10
2022-10-22T09:58:45.550Z,14.10
2022-10-22T09:59:54.153Z,14.10
2022-10-22T10:01:01.171Z,14.10
2022-10-22T10:02:20.413Z,14.20
2022-10-22T10:03:34.229Z,14.20
2022-10-22T10:04:44.975Z,14.20
2022-10-22T10:05:50.380Z,14.30
2022-10-22T10:06:56.597Z,14.20
2022-10-22T10:08:03.607Z,14.10
2022-10-22T10:09:15.060Z,14.20
2022-10-22T10:10:28.847Z,14.20
2022-10-22T10:11:42.894Z,14.20
2022-10-22T10:12:55.396Z,14.10
2022-10-22T10:14:11.753Z,14.10
2022-10-22T10:15:25.910Z,14.10
2022-10-22T10:16:43.203Z,14.20
2022-10-22T10:17:56.139Z,14.20
2022-10-22T10:19:21.272Z,14.20
2022-10-22T10:20:35.351Z,14.30
2022-10-22T10:21:50.135Z,14.30
2022-10-22T10:23:01.846Z,14.30
2022-10-22T10:24:19.376Z,14.30
2022-10-22T10:25:47.397Z,14.30
2022-10-22T10:26:58.795Z,14.20
2022-10-22T10:28:16.388Z,14.20
2022-10-22T10:30:49.161Z,14.20
2022-10-22T10:32:13.998Z,14.20
2022-10-22T10:33:29.282Z,14.20
2022-10-22T10:34:44.168Z,14.20
2022-10-22T10:35:59.544Z,14.20
2022-10-22T10:37:19.120Z,14.10
2022-10-22T10:38:43.503Z,14.10
2022-10-22T10:40:12.521Z,14.10
2022-10-22T10:41:25.786Z,14.20
2022-10-22T10:42:37.589Z,14.30
2022-10-22T10:43:55.207Z,14.20
2022-10-22T10:45:12.091Z,14.30
2022-10-22T10:46:27.594Z,14.30
2022-10-22T10:47:57.239Z,14.30
2022-10-22T10:49:04.503Z,14.30
2022-10-22T10:50:20.675Z,14.30
2022-10-22T10:51:41.174Z,14.20
2022-10-22T10:52:56.660Z,14.10
2022-10-22T10:54:20.838Z,14.00
2022-10-22T10:55:32.733Z,13.90
2022-10-22T10:56:42.401Z,13.90
2022-10-22T10:57:59.989Z,13.90
2022-10-22T10:59:14.450Z,14.00
2022-10-22T11:00:21.615Z,14.00
2022-10-22T11:01:32.976Z,13.80
2022-10-22T11:03:21.587Z,13.90
2022-10-22T11:04:59.255Z,13.80
2022-10-22T11:06:09.882Z,13.80
2022-10-22T11:07:34.155Z,13.90
2022-10-22T11:08:46.527Z,13.80
2022-10-22T11:09:56.556Z,13.90
2022-10-22T11:11:05.075Z,13.80
2022-10-22T11:12:18.719Z,13.90
2022-10-22T11:13:29.886Z,13.90
2022-10-22T11:14:54.013Z,13.90
2022-10-22T11:16:04.664Z,14.60
2022-10-22T11:17:14.393Z,13.80
2022-10-22T11:18:25.694Z,13.80
2022-10-22T11:19:51.065Z,13.90
2022-10-22T11:21:10.121Z,13.90
2022-10-22T11:22:22.412Z,13.80
2022-10-22T11:23:42.966Z,13.80
2022-10-22T11:24:53.622Z,13.80
2022-10-22T11:25:56.948Z,13.70
2022-10-22T11:27:09.485Z,13.60
2022-10-22T11:28:18.465Z,13.70
2022-10-22T11:29:32.140Z,13.70
2022-10-22T11:30:38.366Z,13.70
2022-10-22T11:31:42.917Z,13.70
2022-10-22T11:32:51.901Z,13.70
2022-10-22T11:34:28.483Z,13.80
2022-10-22T11:35:33.181Z,13.80
2022-10-22T11:36:40.580Z,13.70
2022-10-22T11:37:47.508Z,13.70
2022-10-22T11:38:53.767Z,13.70
2022-10-22T11:40:02.566Z,13.70
2022-10-22T11:41:11.383Z,13.70
2022-10-22T11:42:21.477Z,13.70
2022-10-22T11:43:29.781Z,13.70
2022-10-22T11:44:46.261Z,13.70
2022-10-22T11:45:56.885Z,13.70
2022-10-22T11:47:10.011Z,13.70
2022-10-22T11:48:18.950Z,13.70
2022-10-22T11:49:28.304Z,13.60
2022-10-22T11:50:47.662Z,13.70
2022-10-22T11:51:53.506Z,13.70
2022-10-22T11:53:07.373Z,13.70
2022-10-22T11:54:30.329Z,13.70
2022-10-22T11:55:49.837Z,13.70
2022-10-22T11:57:12.845Z,13.80
2022-10-22T11:58:32.032Z,13.80
2022-10-22T11:59:44.855Z,13.70
2022-10-22T12:00:50.508Z,13.60
2022-10-22T12:01:57.478Z,12.90
2022-10-22T12:03:06.078Z,13.70
2022-10-22T12:04:25.025Z,13.70
2022-10-22T12:05:41.493Z,13.60
2022-10-22T12:07:01.780Z,13.70
2022-10-22T12:08:27.240Z,13.70
2022-10-22T12:09:32.935Z,13.70
2022-10-22T12:10:50.846Z,13.70
2022-10-22T12:11:55.529Z,13.80
2022-10-22T12:13:02.906Z,13.80
2022-10-22T12:14:28.863Z,13.80
2022-10-22T12:15:31.909Z,13.80
2022-10-22T12:16:55.676Z,13.90
2022-10-22T12:18:03.501Z,13.90
2022-10-22T12:19:15.242Z,14.00
2022-10-22T12:20:20.111Z,14.00
2022-10-22T12:21:23.741Z,14.00
2022-10-22T12:22:32.673Z,14.00
2022-10-22T12:23:36.458Z,13.90
2022-10-22T12:24:42.968Z,13.90
2022-10-22T12:25:45.291Z,13.90
2022-10-22T12:26:49.919Z,13.90
2022-10-22T12:27:58.043Z,14.70
2022-10-22T12:29:07.617Z,13.90
2022-10-22T12:30:22.182Z,13.90
2022-10-22T12:31:25.452Z,13.80
2022-10-22T12:32:35.477Z,13.90
2022-10-22T12:33:40.324Z,13.80
2022-10-22T12:34:47.382Z,13.80
2022-10-22T12:35:55.560Z,13.80
2022-10-22T12:36:58.909Z,13.80
2022-10-22T12:38:12.953Z,13.80
2022-10-22T12:39:19.295Z,13.90
2022-10-22T12:40:25.323Z,14.40
2022-10-22T12:41:33.223Z,12.60
2022-10-22T12:42:38.173Z,13.70
2022-10-22T12:43:40.584Z,13.80
2022-10-22T12:44:45.646Z,13.80
2022-10-22T12:45:51.523Z,13.80
2022-10-22T12:46:57.143Z,13.80
2022-10-22T12:48:03.182Z,13.80
2022-10-22T12:49:18.466Z,13.80
2022-10-22T12:50:25.823Z,13.70
2022-10-22T12:52:41.597Z,13.80
2022-10-22T12:53:49.170Z,13.80
2022-10-22T12:54:54.933Z,13.80
2022-10-22T12:56:05.322Z,13.80
2022-10-22T12:57:16.864Z,13.80
2022-10-22T12:58:22.996Z,13.90
2022-10-22T12:59:29.672Z,13.80
2022-10-22T13:00:36.107Z,13.80
2022-10-22T13:01:43.050Z,13.80
2022-10-22T13:02:45.725Z,13.90
2022-10-22T13:03:52.494Z,13.80
2022-10-22T13:05:17.709Z,13.80
2022-10-22T13:06:27.555Z,13.80
2022-10-22T13:07:42.739Z,13.80
2022-10-22T13:08:57.732Z,13.80
2022-10-22T13:10:01.692Z,13.70
2022-10-22T13:11:08.777Z,13.70
2022-10-22T13:12:16.582Z,13.70
2022-10-22T13:13:43.306Z,13.60
2022-10-22T13:14:47.609Z,13.70
2022-10-22T13:15:51.083Z,13.80
2022-10-22T13:17:13.538Z,13.80
2022-10-22T13:18:20.036Z,13.80
2022-10-22T13:19:40.812Z,13.60
2022-10-22T13:20:56.412Z,13.70
2022-10-22T13:21:58.862Z,13.60
2022-10-22T13:23:04.169Z,13.60
2022-10-22T13:24:22.713Z,13.50
2022-10-22T13:25:29.272Z,13.50
2022-10-22T13:26:35.272Z,13.50
2022-10-22T13:27:47.447Z,13.50
2022-10-22T13:28:56.564Z,13.40
2022-10-22T13:30:09.697Z,13.40
2022-10-22T13:31:20.465Z,13.40
2022-10-22T13:32:30.487Z,13.40
2022-10-22T13:33:37.798Z,13.50
2022-10-22T13:34:40.886Z,13.10
2022-10-22T13:35:44.837Z,13.40
2022-10-22T13:36:48.572Z,13.40
2022-10-22T13:37:52.319Z,13.50
2022-10-22T13:38:55.753Z,13.40
2022-10-22T13:39:59.495Z,13.50
2022-10-22T13:41:04.993Z,13.50
2022-10-22T13:42:12.397Z,13.60
2022-10-22T13:43:17.166Z,13.50
2022-10-22T13:44:20.062Z,13.50
2022-10-22T13:45:23.562Z,13.50
2022-10-22T13:46:27.629Z,13.50
2022-10-22T13:47:31.763Z,13.60
2022-10-22T13:48:34.256Z,13.50
2022-10-22T13:49:37.642Z,13.50
2022-10-22T13:50:40.217Z,13.40
2022-10-22T13:51:44.733Z,14.10
2022-10-22T13:52:51.502Z,14.70
2022-10-22T13:53:56.676Z,13.50
2022-10-22T13:55:00.606Z,13.50
2022-10-22T13:56:03.884Z,13.40
2022-10-22T13:57:09.628Z,13.40
2022-10-22T13:58:15.462Z,12.70
2022-10-22T13:59:21.219Z,13.30
2022-10-22T14:00:28.588Z,13.30
2022-10-22T14:01:31.670Z,13.30
2022-10-22T14:02:35.109Z,13.30
2022-10-22T14:03:40.559Z,13.40
2022-10-22T14:04:45.552Z,13.50
2022-10-22T14:05:50.299Z,13.40
2022-10-22T14:06:57.675Z,13.50
2022-10-22T14:08:04.429Z,13.50
2022-10-22T14:09:13.778Z,13.60
2022-10-22T14:10:21.819Z,13.60
2022-10-22T14:11:25.580Z,13.60
2022-10-22T14:12:29.700Z,13.60
2022-10-22T14:13:35.274Z,13.60
2022-10-22T14:14:38.870Z,13.60
2022-10-22T14:15:43.175Z,13.60
2022-10-22T14:16:45.584Z,13.60
2022-10-22T14:17:54.595Z,13.60
2022-10-22T14:18:58.443Z,13.60
2022-10-22T14:20:02.326Z,13.50
2022-10-22T14:21:07.947Z,13.50
2022-10-22T14:22:15.826Z,13.60
2022-10-22T14:23:21.565Z,13.60
2022-10-22T14:24:25.189Z,13.60
2022-10-22T14:25:31.607Z,13.50
2022-10-22T14:26:35.431Z,13.60
2022-10-22T14:27:40.038Z,13.70
2022-10-22T14:29:08.057Z,13.60
2022-10-22T14:30:08.905Z,13.70
2022-10-22T14:31:13.522Z,13.70
2022-10-22T14:32:20.597Z,13.80
2022-10-22T14:33:28.909Z,13.90
2022-10-22T14:34:36.991Z,14.00
2022-10-22T14:35:40.687Z,14.10
2022-10-22T14:36:44.943Z,14.20
2022-10-22T14:37:48.135Z,14.20
2022-10-22T14:38:51.469Z,14.20